createdAt,value
2024-05-09T00:00:01.524Z,98.52
2024-05-09T00:01:01.697Z,98.21
2024-05-09T00:02:01.679Z,98.21
2024-05-09T00:03:01.785Z,97.49
2024-05-09T00:04:01.854Z,98.31
2024-05-09T00:05:02.087Z,98.41
2024-05-09T00:06:02.222Z,98.61
2024-05-09T00:07:02.153Z,98.11
2024-05-09T00:08:02.247Z,98.00
2024-05-09T00:09:02.269Z,98.00
2024-05-09T00:10:03.187Z,98.00
2024-05-09T00:11:02.515Z,98.41
2024-05-09T00:12:02.513Z,98.31
2024-05-09T00:13:02.518Z,98.00
2024-05-09T00:14:02.657Z,97.90
2024-05-09T00:15:02.650Z,97.39
2024-05-09T00:16:02.764Z,97.29
2024-05-09T00:17:02.850Z,97.19
2024-05-09T00:18:03.523Z,97.49
2024-05-09T00:19:03.126Z,97.70
2024-05-09T00:20:06.922Z,97.54
2024-05-09T00:21:03.444Z,97.74
2024-05-09T00:22:03.213Z,97.54
2024-05-09T00:23:03.414Z,96.92
2024-05-09T00:24:03.410Z,97.44
2024-05-09T00:25:03.492Z,98.05
2024-05-09T00:26:03.666Z,97.85
2024-05-09T00:27:03.659Z,97.64
2024-05-09T00:28:03.761Z,97.54
2024-05-09T00:29:03.876Z,97.54
2024-05-09T00:30:04.303Z,96.92
2024-05-09T00:31:04.012Z,96.92
2024-05-09T00:32:04.215Z,96.83
2024-05-09T00:33:05.135Z,97.03
2024-05-09T00:34:04.351Z,96.62
2024-05-09T00:35:04.346Z,96.92
2024-05-09T00:36:04.388Z,97.03
2024-05-09T00:37:04.468Z,97.64
2024-05-09T00:38:04.939Z,97.24
2024-05-09T00:39:04.620Z,97.24
2024-05-09T00:40:07.354Z,97.54
2024-05-09T00:41:04.837Z,97.38
2024-05-09T00:42:04.834Z,97.58
2024-05-09T00:43:04.911Z,97.49
2024-05-09T00:44:05.030Z,97.08
2024-05-09T00:45:05.054Z,97.08
2024-05-09T00:46:05.201Z,96.87
2024-05-09T00:47:05.424Z,96.87
2024-05-09T00:48:05.506Z,96.87
2024-05-09T00:49:05.518Z,96.87
2024-05-09T00:50:09.801Z,97.17
2024-05-09T00:51:05.620Z,97.17
2024-05-09T00:52:05.606Z,96.97
2024-05-09T00:53:05.739Z,96.97
2024-05-09T00:54:05.770Z,97.28
2024-05-09T00:55:05.829Z,97.28
2024-05-09T00:56:05.984Z,97.49
2024-05-09T00:57:06.062Z,97.28
2024-05-09T00:58:06.073Z,97.38
2024-05-09T00:59:06.161Z,97.17
2024-05-09T01:00:12.068Z,96.67
2024-05-09T01:01:06.352Z,97.28
2024-05-09T01:02:06.462Z,97.69
2024-05-09T01:03:06.842Z,97.69
2024-05-09T01:04:06.815Z,97.79
2024-05-09T01:05:06.677Z,98.30
2024-05-09T01:06:06.814Z,98.50
2024-05-09T01:07:06.909Z,98.40
2024-05-09T01:08:07.057Z,98.50
2024-05-09T01:09:06.976Z,98.40
2024-05-09T01:10:13.847Z,97.74
2024-05-09T01:11:07.178Z,97.53
2024-05-09T01:12:07.277Z,97.42
2024-05-09T01:13:07.597Z,97.53
2024-05-09T01:14:07.390Z,97.74
2024-05-09T01:15:07.414Z,98.04
2024-05-09T01:16:07.478Z,98.14
2024-05-09T01:17:07.653Z,97.94
2024-05-09T01:18:07.991Z,98.35
2024-05-09T01:19:07.792Z,97.94
2024-05-09T01:20:10.738Z,98.24
2024-05-09T01:21:07.980Z,98.04
2024-05-09T01:22:07.995Z,98.14
2024-05-09T01:23:08.141Z,97.94
2024-05-09T01:24:08.156Z,98.35
2024-05-09T01:25:08.259Z,98.04
2024-05-09T01:26:08.313Z,97.88
2024-05-09T01:27:08.378Z,97.47
2024-05-09T01:28:08.422Z,97.16
2024-05-09T01:29:08.576Z,97.27
2024-05-09T01:30:11.942Z,97.27
2024-05-09T01:31:08.682Z,97.37
2024-05-09T01:32:08.821Z,97.27
2024-05-09T01:33:10.743Z,97.78
2024-05-09T01:34:08.970Z,97.88
2024-05-09T01:35:09.004Z,98.08
2024-05-09T01:36:09.070Z,98.39
2024-05-09T01:37:09.175Z,98.08
2024-05-09T01:38:09.263Z,97.78
2024-05-09T01:39:09.333Z,98.29
2024-05-09T01:40:12.122Z,98.85
2024-05-09T01:41:09.577Z,99.56
2024-05-09T01:42:09.597Z,99.66
2024-05-09T01:43:10.857Z,99.87
2024-05-09T01:44:09.804Z,99.87
2024-05-09T01:45:09.777Z,99.36
2024-05-09T01:46:09.910Z,99.36
2024-05-09T01:47:10.026Z,99.99
2024-05-09T01:48:10.988Z,99.99
2024-05-09T01:49:10.182Z,99.87
2024-05-09T01:50:11.084Z,99.56
2024-05-09T01:51:10.298Z,99.56
2024-05-09T01:52:10.345Z,99.20
2024-05-09T01:53:10.715Z,98.90
2024-05-09T01:54:10.496Z,98.69
2024-05-09T01:55:10.634Z,98.28
2024-05-09T01:56:10.776Z,97.66
2024-05-09T01:57:10.738Z,97.87
2024-05-09T01:58:10.883Z,97.46
2024-05-09T01:59:10.968Z,97.46
2024-05-09T02:00:15.568Z,97.36
2024-05-09T02:01:11.366Z,97.87
2024-05-09T02:02:11.431Z,98.38
2024-05-09T02:03:14.208Z,98.58
2024-05-09T02:04:11.682Z,98.69
2024-05-09T02:05:11.509Z,98.49
2024-05-09T02:06:11.668Z,98.74
2024-05-09T02:07:11.579Z,98.53
2024-05-09T02:08:11.710Z,98.43
2024-05-09T02:09:11.727Z,98.33
2024-05-09T02:10:20.050Z,98.83
2024-05-09T02:11:11.991Z,98.53
2024-05-09T02:12:12.278Z,98.12
2024-05-09T02:13:12.033Z,98.22
2024-05-09T02:14:12.163Z,98.33
2024-05-09T02:15:12.236Z,98.63
2024-05-09T02:16:12.300Z,98.83
2024-05-09T02:17:12.464Z,98.83
2024-05-09T02:18:13.145Z,98.63
2024-05-09T02:19:12.835Z,98.43
2024-05-09T02:20:18.872Z,98.83
2024-05-09T02:21:12.721Z,99.66
2024-05-09T02:22:12.797Z,99.99
2024-05-09T02:23:13.086Z,99.99
2024-05-09T02:24:12.927Z,99.99
2024-05-09T02:25:13.009Z,99.86
2024-05-09T02:26:13.193Z,99.66
2024-05-09T02:27:13.311Z,99.55
2024-05-09T02:28:13.331Z,99.55
2024-05-09T02:29:13.406Z,99.25
2024-05-09T02:30:19.090Z,98.94
2024-05-09T02:31:13.569Z,98.88
2024-05-09T02:32:13.677Z,98.68
2024-05-09T02:33:14.586Z,98.78
2024-05-09T02:34:13.825Z,98.58
2024-05-09T02:35:13.872Z,98.68
2024-05-09T02:36:13.833Z,98.58
2024-05-09T02:37:13.937Z,98.58
2024-05-09T02:38:14.041Z,98.88
2024-05-09T02:39:14.106Z,98.99
2024-05-09T02:40:15.182Z,99.09
2024-05-09T02:41:14.321Z,98.88
2024-05-09T02:42:14.284Z,98.58
2024-05-09T02:43:14.382Z,98.27
2024-05-09T02:44:14.497Z,98.07
2024-05-09T02:45:14.505Z,97.91
2024-05-09T02:46:14.615Z,98.21
2024-05-09T02:47:14.756Z,98.42
2024-05-09T02:48:15.043Z,98.42
2024-05-09T02:49:14.890Z,98.62
2024-05-09T02:50:19.425Z,98.42
2024-05-09T02:51:15.007Z,98.62
2024-05-09T02:52:15.065Z,98.52
2024-05-09T02:53:15.181Z,98.42
2024-05-09T02:54:15.264Z,98.72
2024-05-09T02:55:15.314Z,99.03
2024-05-09T02:56:15.503Z,99.13
2024-05-09T02:57:15.486Z,98.83
2024-05-09T02:58:15.572Z,98.52
2024-05-09T02:59:15.755Z,98.32
2024-05-09T03:00:22.569Z,98.11
2024-05-09T03:01:15.852Z,98.11
2024-05-09T03:02:16.015Z,98.11
2024-05-09T03:03:16.233Z,98.62
2024-05-09T03:04:16.228Z,99.24
2024-05-09T03:05:16.292Z,99.69
2024-05-09T03:06:16.228Z,99.90
2024-05-09T03:07:17.852Z,99.99
2024-05-09T03:08:16.439Z,99.99
2024-05-09T03:09:16.454Z,99.90
2024-05-09T03:10:22.347Z,99.99
2024-05-09T03:11:16.659Z,99.99
2024-05-09T03:12:16.778Z,99.99
2024-05-09T03:13:16.811Z,99.99
2024-05-09T03:14:16.871Z,99.69
2024-05-09T03:15:16.950Z,99.49
2024-05-09T03:16:17.014Z,99.28
2024-05-09T03:17:17.137Z,98.97
2024-05-09T03:18:17.264Z,98.36
2024-05-09T03:19:17.382Z,98.57
2024-05-09T03:20:23.623Z,98.05
2024-05-09T03:21:17.489Z,97.74
2024-05-09T03:22:17.508Z,97.74
2024-05-09T03:23:17.655Z,97.69
2024-05-09T03:24:17.710Z,98.67
2024-05-09T03:25:17.791Z,98.67
2024-05-09T03:26:17.935Z,98.77
2024-05-09T03:27:17.993Z,98.57
2024-05-09T03:28:18.040Z,98.46
2024-05-09T03:29:18.171Z,98.61
2024-05-09T03:30:29.302Z,98.61
2024-05-09T03:31:18.350Z,98.87
2024-05-09T03:32:18.520Z,98.82
2024-05-09T03:33:20.225Z,98.92
2024-05-09T03:34:18.624Z,98.92
2024-05-09T03:35:18.651Z,99.12
2024-05-09T03:36:18.745Z,99.12
2024-05-09T03:37:18.811Z,98.82
2024-05-09T03:38:18.932Z,98.71
2024-05-09T03:39:18.995Z,98.82
2024-05-09T03:40:23.681Z,99.12
2024-05-09T03:41:19.329Z,99.54
2024-05-09T03:42:19.269Z,99.99
2024-05-09T03:43:19.963Z,99.99
2024-05-09T03:44:19.487Z,99.99
2024-05-09T03:45:19.621Z,99.99
2024-05-09T03:46:19.686Z,99.99
2024-05-09T03:47:19.918Z,99.99
2024-05-09T03:48:20.005Z,99.99
2024-05-09T03:49:19.926Z,99.99
2024-05-09T03:50:26.312Z,99.95
2024-05-09T03:51:20.081Z,99.74
2024-05-09T03:52:20.129Z,99.48
2024-05-09T03:53:20.198Z,99.07
2024-05-09T03:54:20.238Z,99.07
2024-05-09T03:55:20.313Z,99.17
2024-05-09T03:56:20.434Z,99.68
2024-05-09T03:57:20.474Z,99.79
2024-05-09T03:58:20.553Z,99.79
2024-05-09T03:59:20.643Z,99.79
2024-05-09T04:00:30.474Z,99.89
2024-05-09T04:01:20.847Z,99.58
2024-05-09T04:02:20.959Z,99.48
2024-05-09T04:03:21.195Z,99.17
2024-05-09T04:04:21.147Z,98.96
2024-05-09T04:05:21.246Z,98.86
2024-05-09T04:06:21.382Z,98.96
2024-05-09T04:07:21.332Z,99.27
2024-05-09T04:08:21.612Z,99.38
2024-05-09T04:09:21.473Z,99.99
2024-05-09T04:10:30.187Z,99.99
2024-05-09T04:11:21.804Z,99.99
2024-05-09T04:12:21.808Z,99.99
2024-05-09T04:13:21.846Z,99.99
2024-05-09T04:14:21.958Z,99.99
2024-05-09T04:15:21.996Z,99.79
2024-05-09T04:16:22.117Z,99.79
2024-05-09T04:17:22.160Z,99.99
2024-05-09T04:18:22.427Z,99.99
2024-05-09T04:19:22.398Z,99.99
2024-05-09T04:20:33.088Z,99.99
2024-05-09T04:21:22.534Z,99.99
2024-05-09T04:22:22.603Z,99.99
2024-05-09T04:23:22.738Z,99.99
2024-05-09T04:24:22.816Z,99.99
2024-05-09T04:25:22.894Z,99.79
2024-05-09T04:26:23.115Z,99.68
2024-05-09T04:27:23.125Z,99.38
2024-05-09T04:28:23.195Z,99.58
2024-05-09T04:29:23.266Z,99.17
2024-05-09T04:30:34.257Z,99.07
2024-05-09T04:31:23.426Z,98.96
2024-05-09T04:32:23.626Z,99.17
2024-05-09T04:33:23.944Z,99.07
2024-05-09T04:34:23.771Z,98.96
2024-05-09T04:35:23.901Z,99.27
2024-05-09T04:36:23.914Z,99.27
2024-05-09T04:37:23.929Z,99.48
2024-05-09T04:38:24.169Z,99.07
2024-05-09T04:39:24.086Z,99.17
2024-05-09T04:40:31.414Z,99.27
2024-05-09T04:41:24.391Z,99.17
2024-05-09T04:42:24.428Z,99.38
2024-05-09T04:43:24.470Z,99.48
2024-05-09T04:44:24.565Z,99.38
2024-05-09T04:45:24.592Z,99.38
2024-05-09T04:46:24.689Z,99.63
2024-05-09T04:47:24.864Z,99.63
2024-05-09T04:48:25.005Z,99.99
2024-05-09T04:49:25.119Z,99.99
2024-05-09T04:50:33.396Z,99.99
2024-05-09T04:51:25.086Z,99.99
2024-05-09T04:52:25.141Z,99.99
2024-05-09T04:53:25.313Z,99.99
2024-05-09T04:54:33.827Z,99.99
2024-05-09T04:55:25.418Z,99.99
2024-05-09T04:56:25.551Z,99.99
2024-05-09T04:57:25.548Z,99.99
2024-05-09T04:58:25.644Z,99.99
2024-05-09T04:59:25.858Z,99.99
2024-05-09T05:00:32.681Z,99.99
2024-05-09T05:01:26.045Z,99.99
2024-05-09T05:02:26.079Z,99.99
2024-05-09T05:03:26.279Z,99.99
2024-05-09T05:04:26.269Z,99.99
2024-05-09T05:05:26.301Z,99.99
2024-05-09T05:06:26.358Z,99.99
2024-05-09T05:07:26.419Z,99.99
2024-05-09T05:08:26.549Z,99.99
2024-05-09T05:09:26.584Z,99.99
2024-05-09T05:10:33.775Z,99.99
2024-05-09T05:11:26.846Z,99.99
2024-05-09T05:12:26.946Z,99.99
2024-05-09T05:13:26.983Z,99.99
2024-05-09T05:14:27.249Z,99.99
2024-05-09T05:15:27.090Z,99.99
2024-05-09T05:16:27.201Z,99.99
2024-05-09T05:17:27.474Z,99.99
2024-05-09T05:18:28.012Z,99.99
2024-05-09T05:19:27.640Z,99.99
2024-05-09T05:20:33.099Z,99.99
2024-05-09T05:21:27.591Z,99.99
2024-05-09T05:22:27.676Z,99.99
2024-05-09T05:23:27.964Z,99.99
2024-05-09T05:24:27.873Z,99.99
2024-05-09T05:25:27.925Z,99.99
2024-05-09T05:26:28.078Z,99.99
2024-05-09T05:27:28.105Z,99.99
2024-05-09T05:28:28.225Z,99.99
2024-05-09T05:29:28.276Z,99.99
2024-05-09T05:30:32.934Z,99.99
2024-05-09T05:31:28.456Z,99.99
2024-05-09T05:32:28.744Z,99.99
2024-05-09T05:33:28.674Z,99.99
2024-05-09T05:34:28.700Z,99.99
2024-05-09T05:35:28.843Z,99.99
2024-05-09T05:36:28.830Z,99.99
2024-05-09T05:37:28.921Z,99.99
2024-05-09T05:38:29.065Z,99.99
2024-05-09T05:39:29.136Z,99.99
2024-05-09T05:40:36.151Z,99.99
2024-05-09T05:41:29.391Z,99.99
2024-05-09T05:42:29.326Z,99.99
2024-05-09T05:43:29.414Z,99.99
2024-05-09T05:44:29.581Z,99.99
2024-05-09T05:45:29.563Z,99.99
2024-05-09T05:46:29.656Z,99.99
2024-05-09T05:47:29.885Z,99.99
2024-05-09T05:48:29.946Z,99.99
2024-05-09T05:49:30.009Z,99.99
2024-05-09T05:50:35.725Z,99.99
2024-05-09T05:51:30.075Z,99.99
2024-05-09T05:52:30.194Z,99.99
2024-05-09T05:53:30.356Z,99.99
2024-05-09T05:54:30.351Z,99.99
2024-05-09T05:55:30.402Z,99.99
2024-05-09T05:56:30.626Z,99.99
2024-05-09T05:57:30.584Z,99.99
2024-05-09T05:58:30.697Z,99.99
2024-05-09T05:59:30.848Z,99.99
2024-05-09T06:00:37.817Z,99.99
2024-05-09T06:01:31.044Z,99.99
2024-05-09T06:02:31.077Z,99.99
2024-05-09T06:03:31.304Z,99.99
2024-05-09T06:04:31.341Z,99.99
2024-05-09T06:05:31.279Z,99.99
2024-05-09T06:06:31.371Z,99.99
2024-05-09T06:07:31.420Z,99.99
2024-05-09T06:08:31.571Z,99.99
2024-05-09T06:09:31.594Z,99.99
2024-05-09T06:10:38.065Z,99.54
2024-05-09T06:11:31.950Z,99.13
2024-05-09T06:12:31.816Z,98.93
2024-05-09T06:13:31.974Z,98.47
2024-05-09T06:14:32.064Z,98.27
2024-05-09T06:15:32.085Z,97.75
2024-05-09T06:16:32.157Z,97.34
2024-05-09T06:17:32.350Z,97.45
2024-05-09T06:18:32.564Z,97.00
2024-05-09T06:19:32.512Z,97.30
2024-05-09T06:20:36.444Z,97.61
2024-05-09T06:21:32.599Z,97.09
2024-05-09T06:22:32.662Z,96.75
2024-05-09T06:23:32.956Z,95.93
2024-05-09T06:24:32.804Z,95.52
2024-05-09T06:25:32.945Z,95.32
2024-05-09T06:26:33.066Z,95.28
2024-05-09T06:27:33.112Z,95.37
2024-05-09T06:28:33.344Z,94.66
2024-05-09T06:29:33.367Z,94.35
2024-05-09T06:31:33.442Z,93.70
2024-05-09T06:32:33.693Z,93.40
2024-05-09T06:33:34.150Z,93.19
2024-05-09T06:34:33.752Z,92.89
2024-05-09T06:35:34.224Z,92.33
2024-05-09T06:36:33.909Z,92.03
2024-05-09T06:37:33.956Z,91.72
2024-05-09T06:38:34.162Z,91.62
2024-05-09T06:39:34.097Z,91.38
2024-05-09T06:40:38.168Z,90.66
2024-05-09T06:41:34.472Z,90.05
2024-05-09T06:42:34.418Z,90.36
2024-05-09T06:43:34.475Z,89.50
2024-05-09T06:44:34.544Z,89.09
2024-05-09T06:45:34.600Z,88.59
2024-05-09T06:46:34.654Z,88.48
2024-05-09T06:47:34.994Z,89.30
2024-05-09T06:48:34.988Z,88.44
2024-05-09T06:49:35.126Z,89.56
2024-05-09T06:50:37.988Z,88.54
2024-05-09T06:51:35.146Z,89.42
2024-05-09T06:52:35.181Z,89.15
2024-05-09T06:53:35.402Z,89.11
2024-05-09T06:54:35.351Z,89.52
2024-05-09T06:55:35.401Z,89.31
2024-05-09T06:56:35.572Z,88.60
2024-05-09T06:57:36.669Z,89.11
2024-05-09T06:58:35.667Z,88.50
2024-05-09T06:59:35.836Z,88.10
2024-05-09T07:00:39.527Z,87.95
2024-05-09T07:01:36.058Z,88.56
2024-05-09T07:02:36.099Z,88.62
2024-05-09T07:03:36.258Z,87.92
2024-05-09T07:04:36.240Z,86.59
2024-05-09T07:05:36.342Z,85.94
2024-05-09T07:06:36.275Z,85.44
2024-05-09T07:07:36.359Z,85.53
2024-05-09T07:08:36.595Z,85.74
2024-05-09T07:09:36.547Z,86.51
2024-05-09T07:10:37.227Z,86.00
2024-05-09T07:11:36.771Z,84.99
2024-05-09T07:12:36.773Z,84.44
2024-05-09T07:13:36.881Z,84.04
2024-05-09T07:14:38.461Z,83.53
2024-05-09T07:15:36.994Z,83.12
2024-05-09T07:16:37.039Z,82.52
2024-05-09T07:17:37.459Z,81.91
2024-05-09T07:18:37.608Z,81.81
2024-05-09T07:19:37.508Z,81.40
2024-05-09T07:20:37.458Z,81.26
2024-05-09T07:21:37.502Z,80.86
2024-05-09T07:22:37.557Z,80.86
2024-05-09T07:23:37.785Z,81.46
2024-05-09T07:24:37.667Z,81.43
2024-05-09T07:25:37.786Z,81.63
2024-05-09T07:26:37.982Z,81.02
2024-05-09T07:27:37.934Z,81.09
2024-05-09T07:28:38.037Z,80.68
2024-05-09T07:29:38.845Z,80.58
2024-05-09T07:30:38.185Z,80.84
2024-05-09T07:31:38.261Z,79.93
2024-05-09T07:32:38.543Z,79.43
2024-05-09T07:33:38.536Z,79.22
2024-05-09T07:34:38.658Z,79.22
2024-05-09T07:35:38.845Z,79.53
2024-05-09T07:36:38.703Z,78.82
2024-05-09T07:37:38.781Z,78.52
2024-05-09T07:38:39.122Z,78.52
2024-05-09T07:39:38.986Z,78.58
2024-05-09T07:40:39.056Z,78.08
2024-05-09T07:41:39.219Z,78.17
2024-05-09T07:42:39.207Z,77.84
2024-05-09T07:43:39.279Z,77.84
2024-05-09T07:44:39.374Z,77.64
2024-05-09T07:45:48.948Z,73.99
2024-05-09T07:47:47.644Z,73.75
2024-05-09T07:51:31.284Z,73.75
2024-05-09T07:53:36.162Z,70.29
2024-05-09T07:54:03.469Z,69.18
2024-05-09T07:55:03.186Z,69.58
2024-05-09T07:56:03.281Z,69.75
2024-05-09T07:57:03.332Z,69.95
2024-05-09T07:58:03.325Z,69.95
2024-05-09T07:59:03.303Z,70.53
2024-05-09T08:00:03.422Z,69.82
2024-05-09T08:01:03.679Z,70.69
2024-05-09T08:02:03.855Z,70.89
2024-05-09T08:03:03.662Z,70.46
2024-05-09T08:04:03.779Z,68.04
2024-05-09T08:05:03.825Z,67.33
2024-05-09T08:06:03.875Z,67.54
2024-05-09T08:07:03.999Z,68.34
2024-05-09T08:08:04.026Z,68.51
2024-05-09T08:09:08.116Z,68.51
2024-05-09T08:10:05.332Z,65.69
2024-05-09T08:11:04.296Z,66.30
2024-05-09T08:12:04.352Z,67.20
2024-05-09T08:13:04.542Z,67.10
2024-05-09T08:14:04.549Z,65.99
2024-05-09T08:15:04.674Z,65.56
2024-05-09T08:16:04.901Z,65.76
2024-05-09T08:17:04.782Z,65.76
2024-05-09T08:18:04.977Z,64.75
2024-05-09T08:19:05.079Z,64.15
2024-05-09T08:20:05.722Z,65.02
2024-05-09T08:21:05.085Z,64.42
2024-05-09T08:22:05.144Z,63.82
2024-05-09T08:23:05.238Z,64.52
2024-05-09T08:24:05.336Z,63.31
2024-05-09T08:25:05.758Z,63.51
2024-05-09T08:26:05.475Z,63.92
2024-05-09T08:27:05.560Z,64.52
2024-05-09T08:28:05.733Z,64.02
2024-05-09T08:29:05.718Z,64.22
2024-05-09T08:30:07.919Z,64.62
2024-05-09T08:31:07.202Z,63.62
2024-05-09T08:32:06.013Z,62.61
2024-05-09T08:33:06.932Z,62.21
2024-05-09T08:34:06.262Z,62.30
2024-05-09T08:35:06.442Z,62.98
2024-05-09T08:36:06.303Z,63.99
2024-05-09T08:37:13.084Z,63.65
2024-05-09T08:38:06.774Z,63.12
2024-05-09T08:39:06.538Z,62.92
2024-05-09T08:40:11.022Z,64.00
2024-05-09T08:41:06.731Z,63.90
2024-05-09T08:42:06.808Z,62.79
2024-05-09T08:43:07.073Z,62.49
2024-05-09T08:44:06.981Z,60.48
2024-05-09T08:45:07.083Z,59.38
2024-05-09T08:46:07.331Z,59.98
2024-05-09T08:47:07.388Z,59.17
2024-05-09T08:48:07.564Z,59.91
2024-05-09T08:49:07.538Z,59.70
2024-05-09T08:50:11.037Z,59.50
2024-05-09T08:51:07.579Z,60.31
2024-05-09T08:52:07.778Z,60.91
2024-05-09T08:53:08.071Z,60.81
2024-05-09T08:54:07.845Z,60.51
2024-05-09T08:55:07.955Z,60.28
2024-05-09T08:56:07.994Z,59.98
2024-05-09T08:57:08.048Z,60.96
2024-05-09T08:58:08.353Z,62.63
2024-05-09T08:59:08.186Z,61.43
2024-05-09T09:00:12.690Z,60.80
2024-05-09T09:01:08.489Z,60.69
2024-05-09T09:02:08.571Z,60.97
2024-05-09T09:03:08.553Z,60.97
2024-05-09T09:04:08.782Z,60.74
2024-05-09T09:05:08.803Z,58.43
2024-05-09T09:06:08.838Z,58.23
2024-05-09T09:07:08.947Z,57.03
2024-05-09T09:08:09.151Z,56.65
2024-05-09T09:09:09.010Z,55.75
2024-05-09T09:10:10.715Z,57.56
2024-05-09T09:11:09.210Z,59.33
2024-05-09T09:12:10.718Z,59.00
2024-05-09T09:13:10.052Z,56.40
2024-05-09T09:14:09.456Z,54.10
2024-05-09T09:15:09.523Z,55.22
2024-05-09T09:16:09.639Z,56.20
2024-05-09T09:17:09.773Z,55.50
2024-05-09T09:18:12.197Z,54.12
2024-05-09T09:19:10.079Z,54.43
2024-05-09T09:20:14.397Z,53.32
2024-05-09T09:21:10.017Z,55.52
2024-05-09T09:22:10.191Z,54.32
2024-05-09T09:23:10.208Z,54.10
2024-05-09T09:24:10.268Z,54.00
2024-05-09T09:25:10.389Z,56.77
2024-05-09T09:26:10.488Z,53.80
2024-05-09T09:27:10.545Z,55.10
2024-05-09T09:28:10.783Z,54.50
2024-05-09T09:29:10.726Z,53.52
2024-05-09T09:30:22.974Z,55.22
2024-05-09T09:31:10.924Z,55.65
2024-05-09T09:32:10.980Z,56.93
2024-05-09T09:33:11.508Z,55.80
2024-05-09T09:34:11.403Z,55.80
2024-05-09T09:35:11.241Z,54.80
2024-05-09T09:36:11.733Z,55.37
2024-05-09T09:37:11.667Z,56.37
2024-05-09T09:38:11.477Z,58.15
2024-05-09T09:39:11.566Z,57.52
2024-05-09T09:40:13.331Z,54.62
2024-05-09T09:41:11.700Z,58.00
2024-05-09T09:42:11.748Z,56.49
2024-05-09T09:43:11.924Z,55.57
2024-05-09T09:44:11.930Z,54.27
2024-05-09T09:45:11.991Z,56.57
2024-05-09T09:46:12.991Z,57.54
2024-05-09T09:47:12.160Z,56.74
2024-05-09T09:48:12.554Z,57.21
2024-05-09T09:49:12.421Z,53.22
2024-05-09T09:50:16.873Z,55.32
2024-05-09T09:51:12.428Z,53.92
2024-05-09T09:52:12.602Z,52.22
2024-05-09T09:53:12.628Z,52.14
2024-05-09T09:54:12.735Z,52.94
2024-05-09T09:55:12.857Z,54.91
2024-05-09T09:56:12.892Z,55.29
2024-05-09T09:57:12.978Z,55.88
2024-05-09T09:58:14.405Z,54.39
2024-05-09T09:59:13.194Z,54.57
2024-05-09T10:00:17.412Z,52.76
2024-05-09T10:01:13.498Z,52.97
2024-05-09T10:02:13.592Z,56.43
2024-05-09T10:03:13.599Z,52.64
2024-05-09T10:04:13.700Z,50.17
2024-05-09T10:05:13.814Z,51.47
2024-05-09T10:06:13.775Z,53.47
2024-05-09T10:07:13.927Z,53.84
2024-05-09T10:08:13.903Z,51.65
2024-05-09T10:09:14.001Z,51.72
2024-05-09T10:10:16.547Z,53.24
2024-05-09T10:11:14.181Z,51.62
2024-05-09T10:12:14.395Z,51.54
2024-05-09T10:13:14.469Z,49.25
2024-05-09T10:14:14.396Z,50.25
2024-05-09T10:15:14.453Z,49.95
2024-05-09T10:16:14.643Z,51.45
2024-05-09T10:17:14.735Z,51.54
2024-05-09T10:18:15.253Z,51.03
2024-05-09T10:19:14.927Z,51.92
2024-05-09T10:20:21.620Z,50.35
2024-05-09T10:21:14.966Z,50.57
2024-05-09T10:22:15.104Z,51.27
2024-05-09T10:23:15.193Z,51.29
2024-05-09T10:24:15.214Z,51.82
2024-05-09T10:25:15.355Z,51.45
2024-05-09T10:26:15.388Z,51.17
2024-05-09T10:27:15.471Z,52.07
2024-05-09T10:28:15.603Z,52.64
2024-05-09T10:29:15.673Z,52.94
2024-05-09T10:30:21.667Z,52.25
2024-05-09T10:31:16.313Z,50.57
2024-05-09T10:32:16.083Z,51.64
2024-05-09T10:33:16.107Z,53.12
2024-05-09T10:34:16.376Z,50.42
2024-05-09T10:35:16.156Z,51.12
2024-05-09T10:36:16.267Z,50.30
2024-05-09T10:37:16.300Z,50.40
2024-05-09T10:38:16.388Z,50.60
2024-05-09T10:39:16.496Z,51.02
2024-05-09T10:40:23.427Z,51.54
2024-05-09T10:41:16.626Z,52.67
2024-05-09T10:42:16.734Z,52.67
2024-05-09T10:43:16.916Z,54.27
2024-05-09T10:44:16.915Z,52.04
2024-05-09T10:45:16.991Z,51.45
2024-05-09T10:46:17.132Z,51.25
2024-05-09T10:47:17.171Z,51.45
2024-05-09T10:48:17.329Z,52.87
2024-05-09T10:49:17.489Z,53.94
2024-05-09T10:50:25.056Z,52.94
2024-05-09T10:51:17.461Z,53.24
2024-05-09T10:52:17.613Z,52.84
2024-05-09T10:53:17.667Z,53.04
2024-05-09T10:54:17.711Z,53.54
2024-05-09T10:55:17.845Z,52.25
2024-05-09T10:56:17.844Z,51.54
2024-05-09T10:57:18.021Z,51.64
2024-05-09T10:58:18.227Z,52.34
2024-05-09T10:59:18.137Z,52.62
2024-05-09T11:00:27.309Z,51.52
2024-05-09T11:01:18.373Z,51.25
2024-05-09T11:02:18.552Z,50.37
2024-05-09T11:03:18.504Z,51.27
2024-05-09T11:04:18.574Z,51.45
2024-05-09T11:05:18.775Z,51.04
2024-05-09T11:06:18.737Z,50.35
2024-05-09T11:07:18.915Z,48.55
2024-05-09T11:08:18.942Z,50.04
2024-05-09T11:09:19.056Z,50.92
2024-05-09T11:10:27.290Z,52.27
2024-05-09T11:11:19.282Z,51.75
2024-05-09T11:12:21.317Z,49.73
2024-05-09T11:13:19.435Z,49.63
2024-05-09T11:14:19.434Z,49.01
2024-05-09T11:15:19.544Z,49.10
2024-05-09T11:16:20.165Z,47.09
2024-05-09T11:17:19.775Z,46.20
2024-05-09T11:18:21.643Z,46.77
2024-05-09T11:19:20.159Z,44.68
2024-05-09T11:20:26.851Z,44.78
2024-05-09T11:21:20.023Z,44.66
2024-05-09T11:22:20.174Z,45.06
2024-05-09T11:23:20.186Z,45.83
2024-05-09T11:24:20.246Z,45.21
2024-05-09T11:25:20.474Z,43.01
2024-05-09T11:26:20.485Z,43.60
2024-05-09T11:27:20.548Z,42.51
2024-05-09T11:28:20.731Z,42.93
2024-05-09T11:29:20.753Z,44.14
2024-05-09T11:30:29.647Z,43.96
2024-05-09T11:31:21.318Z,43.86
2024-05-09T11:32:21.057Z,43.24
2024-05-09T11:33:21.097Z,43.07
2024-05-09T11:34:21.158Z,42.27
2024-05-09T11:35:21.231Z,42.89
2024-05-09T11:36:21.306Z,41.39
2024-05-09T11:37:21.596Z,42.61
2024-05-09T11:38:21.534Z,42.71
2024-05-09T11:39:21.582Z,43.80
2024-05-09T11:40:25.847Z,41.79
2024-05-09T11:41:21.702Z,44.24
2024-05-09T11:42:21.851Z,42.23
2024-05-09T11:43:22.057Z,44.37
2024-05-09T11:44:21.977Z,45.32
2024-05-09T11:45:22.025Z,43.99
2024-05-09T11:46:22.158Z,44.49
2024-05-09T11:47:22.310Z,42.58
2024-05-09T11:48:22.653Z,41.47
2024-05-09T11:49:25.351Z,41.38
2024-05-09T11:50:29.598Z,40.88
2024-05-09T11:51:22.632Z,40.34
2024-05-09T11:52:22.695Z,41.53
2024-05-09T11:53:22.910Z,40.55
2024-05-09T11:54:22.839Z,41.73
2024-05-09T11:55:27.223Z,43.07
2024-05-09T11:56:23.136Z,43.07
2024-05-09T11:57:23.152Z,44.02
2024-05-09T11:58:23.464Z,43.73
2024-05-09T11:59:23.297Z,40.96
2024-05-09T12:01:26.105Z,40.11
2024-05-09T12:02:23.638Z,39.16
2024-05-09T12:03:23.675Z,39.87
2024-05-09T12:04:24.000Z,41.08
2024-05-09T12:05:24.055Z,40.60
2024-05-09T12:06:23.925Z,40.11
2024-05-09T12:07:24.191Z,40.80
2024-05-09T12:08:24.100Z,40.29
2024-05-09T12:09:24.182Z,40.58
2024-05-09T12:10:32.525Z,40.96
2024-05-09T12:11:24.373Z,39.95
2024-05-09T12:12:24.484Z,41.44
2024-05-09T12:13:24.700Z,39.16
2024-05-09T12:14:24.573Z,41.71
2024-05-09T12:15:24.722Z,38.55
2024-05-09T12:16:25.029Z,38.68
2024-05-09T12:17:24.982Z,39.18
2024-05-09T12:18:25.157Z,39.46
2024-05-09T12:19:25.118Z,40.25
2024-05-09T12:20:28.797Z,42.11
2024-05-09T12:21:25.561Z,42.85
2024-05-09T12:22:25.414Z,42.93
2024-05-09T12:23:25.397Z,37.82
2024-05-09T12:24:25.464Z,39.42
2024-05-09T12:25:25.577Z,43.43
2024-05-09T12:26:25.672Z,42.13
2024-05-09T12:27:25.720Z,37.87
2024-05-09T12:28:25.781Z,35.64
2024-05-09T12:29:25.887Z,36.25
2024-05-09T12:30:35.201Z,36.87
2024-05-09T12:31:26.168Z,38.65
2024-05-09T12:32:26.464Z,38.71
2024-05-09T12:33:26.225Z,38.13
2024-05-09T12:34:26.252Z,37.03
2024-05-09T12:35:26.327Z,35.63
2024-05-09T12:36:26.451Z,35.37
2024-05-09T12:37:26.524Z,35.47
2024-05-09T12:38:26.580Z,35.78
2024-05-09T12:39:26.634Z,36.37
2024-05-09T12:40:34.851Z,39.04
2024-05-09T12:41:26.851Z,41.39
2024-05-09T12:42:28.600Z,40.94
2024-05-09T12:43:27.120Z,41.99
2024-05-09T12:44:27.022Z,39.70
2024-05-09T12:45:27.142Z,39.28
2024-05-09T12:46:27.311Z,37.30
2024-05-09T12:47:27.425Z,36.45
2024-05-09T12:48:27.591Z,37.43
2024-05-09T12:49:27.718Z,36.55
2024-05-09T12:50:32.577Z,36.35
2024-05-09T12:51:27.744Z,37.17
2024-05-09T12:52:27.817Z,36.98
2024-05-09T12:53:27.923Z,37.57
2024-05-09T12:54:27.968Z,36.19
2024-05-09T12:55:29.747Z,36.80
2024-05-09T12:56:28.141Z,37.37
2024-05-09T12:57:28.250Z,37.83
2024-05-09T12:58:28.380Z,36.36
2024-05-09T12:59:28.472Z,36.46